createdAt,value
2024-04-30T00:02:30.566Z,100.00
2024-04-30T00:06:32.058Z,100.00
2024-04-30T00:10:33.709Z,100.00
2024-04-30T00:14:35.230Z,100.00
2024-04-30T00:18:36.734Z,100.00
2024-04-30T00:22:38.211Z,100.00
2024-04-30T00:26:40.075Z,100.00
2024-04-30T00:30:41.608Z,100.00
2024-04-30T00:34:43.082Z,100.00
2024-04-30T00:38:44.736Z,100.00
2024-04-30T00:42:46.235Z,100.00
2024-04-30T00:46:47.970Z,100.00
2024-04-30T00:50:49.705Z,100.00
2024-04-30T00:54:51.287Z,100.00
2024-04-30T00:58:52.768Z,100.00
2024-04-30T01:02:54.231Z,100.00
2024-04-30T01:06:55.743Z,100.00
2024-04-30T01:10:57.444Z,100.00
2024-04-30T01:14:58.946Z,100.00
2024-04-30T01:19:00.463Z,100.00
2024-04-30T01:23:01.924Z,100.00
2024-04-30T01:27:04.240Z,100.00
2024-04-30T01:31:05.808Z,100.00
2024-04-30T01:35:07.643Z,100.00
2024-04-30T01:39:09.172Z,100.00
2024-04-30T01:43:10.817Z,100.00
2024-04-30T01:47:12.330Z,100.00
2024-04-30T01:51:13.848Z,100.00
2024-04-30T01:55:15.383Z,100.00
2024-04-30T01:59:16.885Z,99.79
2024-04-30T02:03:18.447Z,98.72
2024-04-30T02:07:20.061Z,97.65
2024-04-30T02:11:21.679Z,98.18
2024-04-30T02:15:23.251Z,98.73
2024-04-30T02:19:24.760Z,96.37
2024-04-30T02:23:26.312Z,95.11
2024-04-30T02:27:27.841Z,94.97
2024-04-30T02:31:29.402Z,96.34
2024-04-30T02:35:30.940Z,97.02
2024-04-30T02:39:32.431Z,97.28
2024-04-30T02:43:34.084Z,98.63
2024-04-30T02:47:35.755Z,98.45
2024-04-30T02:51:37.316Z,98.45
2024-04-30T02:55:39.606Z,98.28
2024-04-30T02:59:41.188Z,98.17
2024-04-30T03:03:44.022Z,96.88
2024-04-30T03:07:45.555Z,96.49
2024-04-30T03:11:47.040Z,96.23
2024-04-30T03:15:48.597Z,95.28
2024-04-30T03:19:52.839Z,94.37
2024-04-30T03:23:54.320Z,92.17
2024-04-30T03:27:57.697Z,91.30
2024-04-30T03:32:00.535Z,89.58
2024-04-30T03:36:02.005Z,87.90
2024-04-30T03:40:03.927Z,86.81
2024-04-30T03:44:05.707Z,86.86
2024-04-30T03:48:07.412Z,86.55
2024-04-30T03:52:09.048Z,85.14
2024-04-30T03:56:10.624Z,85.34
2024-04-30T04:00:12.465Z,84.68
2024-04-30T04:04:14.018Z,84.33
2024-04-30T04:08:15.552Z,84.60
2024-04-30T04:12:17.079Z,84.46
2024-04-30T04:16:18.671Z,84.43
2024-04-30T04:20:20.159Z,83.73
2024-04-30T04:24:21.716Z,83.78
2024-04-30T04:28:23.242Z,84.60
2024-04-30T04:32:24.890Z,83.86
2024-04-30T04:36:26.417Z,84.52
2024-04-30T04:40:27.959Z,84.92
2024-04-30T04:44:29.454Z,85.64
2024-04-30T04:48:31.025Z,84.93
2024-04-30T04:52:32.614Z,84.11
2024-04-30T04:56:34.202Z,84.70
2024-04-30T05:00:35.773Z,84.96
2024-04-30T05:04:37.312Z,85.28
2024-04-30T05:08:38.838Z,84.83
2024-04-30T05:12:40.384Z,84.70
2024-04-30T05:16:41.904Z,84.32
2024-04-30T05:20:43.454Z,85.07
2024-04-30T05:24:45.017Z,83.89
2024-04-30T05:28:46.568Z,84.23
2024-04-30T05:32:48.312Z,82.27
2024-04-30T05:36:49.831Z,82.38
2024-04-30T05:40:51.362Z,82.29
2024-04-30T05:44:54.929Z,82.33
2024-04-30T05:48:56.429Z,80.49
2024-04-30T05:52:57.896Z,79.85
2024-04-30T05:57:02.444Z,79.64
2024-04-30T06:01:04.271Z,77.27
2024-04-30T06:05:05.989Z,77.95
2024-04-30T06:09:07.541Z,76.51
2024-04-30T06:13:09.270Z,75.15
2024-04-30T06:17:10.767Z,75.88
2024-04-30T06:21:19.864Z,74.59
2024-04-30T06:25:25.245Z,76.21
2024-04-30T06:29:26.821Z,77.06
2024-04-30T06:33:28.405Z,75.65
2024-04-30T06:37:29.938Z,74.44
2024-04-30T06:41:31.408Z,71.87
2024-04-30T06:45:32.915Z,70.98
2024-04-30T06:49:34.888Z,73.83
2024-04-30T06:53:36.396Z,73.36
2024-04-30T06:57:38.083Z,70.69
2024-04-30T07:01:39.778Z,69.43
2024-04-30T07:05:41.347Z,68.13
2024-04-30T07:09:42.839Z,65.52
2024-04-30T07:13:44.355Z,65.66
2024-04-30T07:17:45.946Z,67.31
2024-04-30T07:21:47.445Z,67.49
2024-04-30T07:25:49.021Z,63.27
2024-04-30T07:29:50.620Z,62.17
2024-04-30T07:33:52.131Z,64.20
2024-04-30T07:37:53.648Z,60.77
2024-04-30T07:41:55.117Z,61.08
2024-04-30T07:45:56.803Z,60.23
2024-04-30T07:49:58.341Z,60.02
2024-04-30T07:53:59.821Z,58.71
2024-04-30T07:58:01.504Z,57.33
2024-04-30T08:02:03.464Z,56.26
2024-04-30T08:06:11.070Z,54.02
2024-04-30T08:10:20.039Z,53.24
2024-04-30T08:14:21.605Z,54.79
2024-04-30T08:18:23.133Z,55.68
2024-04-30T08:22:24.682Z,51.20
2024-04-30T08:26:26.179Z,51.40
2024-04-30T08:30:27.669Z,50.76
2024-04-30T08:34:29.541Z,53.21
2024-04-30T08:38:31.062Z,51.52
2024-04-30T08:42:33.247Z,47.82
2024-04-30T08:46:38.776Z,47.02
2024-04-30T08:50:42.791Z,48.00
2024-04-30T08:54:44.369Z,46.11
2024-04-30T08:58:45.891Z,45.94
2024-04-30T09:02:53.103Z,45.38
2024-04-30T09:06:56.082Z,44.79
2024-04-30T09:10:57.671Z,45.58
2024-04-30T09:14:59.263Z,45.31
2024-04-30T09:19:00.761Z,44.30
2024-04-30T09:23:02.286Z,44.19
2024-04-30T09:27:04.127Z,43.17
2024-04-30T09:31:06.054Z,43.44
2024-04-30T09:35:07.742Z,44.39
2024-04-30T09:39:10.191Z,45.02
2024-04-30T09:43:12.108Z,43.59
2024-04-30T09:47:15.483Z,42.41
2024-04-30T09:51:20.152Z,43.35
2024-04-30T09:55:23.895Z,42.89
2024-04-30T09:59:25.462Z,41.87
2024-04-30T10:03:29.848Z,42.40
2024-04-30T10:07:32.578Z,42.39
2024-04-30T10:11:45.403Z,41.80
2024-04-30T10:15:46.870Z,41.79
2024-04-30T10:19:48.788Z,41.50
2024-04-30T10:23:50.304Z,41.42
2024-04-30T10:28:03.616Z,41.20
2024-04-30T10:32:05.941Z,41.64
2024-04-30T10:36:12.435Z,42.19
2024-04-30T10:40:14.725Z,40.79
2024-04-30T10:44:16.194Z,39.85
2024-04-30T10:48:17.737Z,40.44
2024-04-30T10:52:22.488Z,40.51
2024-04-30T10:56:25.222Z,39.78
2024-04-30T11:00:26.767Z,38.69
2024-04-30T11:04:29.404Z,38.94
2024-04-30T11:08:30.942Z,40.24
2024-04-30T11:12:32.433Z,40.19
2024-04-30T11:16:33.943Z,39.31
2024-04-30T11:20:35.437Z,39.42
2024-04-30T11:24:37.475Z,38.54
2024-04-30T11:28:39.092Z,39.91
2024-04-30T11:32:40.778Z,38.59
2024-04-30T11:36:42.454Z,38.96
2024-04-30T11:44:45.537Z,37.53
2024-04-30T11:48:47.172Z,38.42
2024-04-30T11:52:49.347Z,37.89
2024-04-30T11:56:52.026Z,35.46
2024-04-30T12:00:53.593Z,36.24
2024-04-30T12:04:58.006Z,34.86
2024-04-30T12:08:59.562Z,36.30
2024-04-30T12:13:01.115Z,34.46
2024-04-30T12:17:02.766Z,33.20
2024-04-30T12:21:04.731Z,32.93
2024-04-30T12:25:06.475Z,31.94
2024-04-30T12:29:08.142Z,32.37
2024-04-30T12:33:09.718Z,29.65
2024-04-30T12:37:11.480Z,28.74
2024-04-30T12:41:12.954Z,28.02
2024-04-30T12:45:14.493Z,27.65
2024-04-30T12:49:16.096Z,27.35
2024-04-30T12:53:17.720Z,26.17
2024-04-30T12:57:19.191Z,26.43
2024-04-30T13:01:24.358Z,25.82
2024-04-30T13:05:27.660Z,24.66
2024-04-30T13:09:29.195Z,24.45
2024-04-30T13:13:30.839Z,24.23
2024-04-30T13:17:32.440Z,24.22
2024-04-30T13:21:34.083Z,23.73
2024-04-30T13:25:35.700Z,23.70
2024-04-30T13:29:37.293Z,23.48
2024-04-30T13:33:38.806Z,22.45
2024-04-30T13:37:40.452Z,22.68
2024-04-30T13:41:41.943Z,21.90
2024-04-30T13:45:43.643Z,22.41
2024-04-30T13:49:45.136Z,22.81
2024-04-30T13:53:46.647Z,22.11
2024-04-30T13:57:48.086Z,23.92
2024-04-30T14:01:49.753Z,22.34
2024-04-30T14:05:51.346Z,22.11
2024-04-30T14:09:52.910Z,21.79
2024-04-30T14:13:54.380Z,21.53
2024-04-30T14:17:55.996Z,21.25
2024-04-30T14:21:57.528Z,21.76
2024-04-30T14:25:59.027Z,21.71
2024-04-30T14:30:00.609Z,21.43
2024-04-30T14:34:02.338Z,23.20
2024-04-30T14:38:03.980Z,22.31
2024-04-30T14:42:05.577Z,21.64
2024-04-30T14:46:07.922Z,23.62
2024-04-30T14:50:09.435Z,25.66
2024-04-30T14:54:11.059Z,25.86
2024-04-30T14:58:12.557Z,26.68
2024-04-30T15:02:14.153Z,26.93
2024-04-30T15:06:22.249Z,27.82
2024-04-30T15:10:23.799Z,27.44
2024-04-30T15:14:28.587Z,27.77
2024-04-30T15:18:30.122Z,28.96
2024-04-30T15:22:31.773Z,29.19
2024-04-30T15:26:38.637Z,29.64
2024-04-30T15:30:40.198Z,29.15
2024-04-30T15:34:41.823Z,30.21
2024-04-30T15:38:43.365Z,29.27
2024-04-30T15:42:45.015Z,29.16
2024-04-30T15:46:46.679Z,29.67
2024-04-30T15:50:48.248Z,29.88
2024-04-30T15:54:49.874Z,30.38
2024-04-30T15:58:51.418Z,29.11
2024-04-30T16:02:52.943Z,29.76
2024-04-30T16:06:54.604Z,30.93
2024-04-30T16:10:56.253Z,30.40
2024-04-30T16:14:57.788Z,29.94
2024-04-30T16:18:59.272Z,30.71
2024-04-30T16:23:00.834Z,31.92
2024-04-30T16:27:02.377Z,31.47
2024-04-30T16:31:04.209Z,32.25
2024-04-30T16:35:05.890Z,32.29
2024-04-30T16:39:07.417Z,31.67
2024-04-30T16:43:08.948Z,32.39
2024-04-30T16:47:10.524Z,32.52
2024-04-30T16:51:13.966Z,32.39
2024-04-30T16:55:15.492Z,31.68
2024-04-30T16:59:17.030Z,33.84
2024-04-30T17:03:18.702Z,35.47
2024-04-30T17:07:20.327Z,35.44
2024-04-30T17:11:21.837Z,36.41
2024-04-30T17:15:24.329Z,37.10
2024-04-30T17:19:25.837Z,37.85
2024-04-30T17:23:27.364Z,36.87
2024-04-30T17:27:30.838Z,37.85
2024-04-30T17:31:34.002Z,38.04
2024-04-30T17:35:35.798Z,39.11
2024-04-30T17:39:38.172Z,38.91
2024-04-30T17:43:39.691Z,39.62
2024-04-30T17:47:41.199Z,39.16
2024-04-30T17:51:43.737Z,39.69
2024-04-30T17:55:45.253Z,39.81
2024-04-30T17:59:46.812Z,40.08
2024-04-30T18:03:52.460Z,41.37
2024-04-30T18:07:54.000Z,41.41
2024-04-30T18:11:56.936Z,41.76
2024-04-30T18:15:59.942Z,42.47
2024-04-30T18:20:01.466Z,42.27
2024-04-30T18:24:03.663Z,42.54
2024-04-30T18:28:05.202Z,43.50
2024-04-30T18:32:07.118Z,44.06
2024-04-30T18:36:08.768Z,45.19
2024-04-30T18:40:10.390Z,45.36
2024-04-30T18:44:12.787Z,45.05
2024-04-30T18:48:14.893Z,45.86
2024-04-30T18:52:17.030Z,46.02
2024-04-30T18:56:18.969Z,46.90
2024-04-30T19:00:20.793Z,46.37
2024-04-30T19:04:22.359Z,45.29
2024-04-30T19:08:23.941Z,44.65
2024-04-30T19:12:25.530Z,45.18
2024-04-30T19:16:27.004Z,44.42
2024-04-30T19:20:28.519Z,44.77
2024-04-30T19:24:30.097Z,44.45
2024-04-30T19:28:31.689Z,44.31
2024-04-30T19:32:34.375Z,45.10
2024-04-30T19:36:35.901Z,44.96
2024-04-30T19:40:37.900Z,44.56
2024-04-30T19:44:39.608Z,45.13
2024-04-30T19:48:41.260Z,44.51
2024-04-30T19:52:42.826Z,44.43
2024-04-30T19:56:44.359Z,44.14
2024-04-30T20:00:45.914Z,44.51
2024-04-30T20:04:47.557Z,44.17
2024-04-30T20:08:49.081Z,44.02
2024-04-30T20:12:50.580Z,44.20
2024-04-30T20:16:52.377Z,45.34
2024-04-30T20:20:53.959Z,45.18
2024-04-30T20:24:55.475Z,44.81
2024-04-30T20:28:57.311Z,45.00
2024-04-30T20:32:58.995Z,45.31
2024-04-30T20:37:00.777Z,44.65
2024-04-30T20:41:02.276Z,45.02
2024-04-30T20:45:04.017Z,45.57
2024-04-30T20:49:05.883Z,45.21
2024-04-30T20:53:07.397Z,45.39
2024-04-30T20:57:08.916Z,45.93
2024-04-30T21:01:15.508Z,46.37
2024-04-30T21:05:17.042Z,46.44
2024-04-30T21:09:18.670Z,46.52
2024-04-30T21:13:23.462Z,46.85
2024-04-30T21:17:24.985Z,47.00
2024-04-30T21:21:26.453Z,47.09
2024-04-30T21:25:27.932Z,47.33
2024-04-30T21:29:29.401Z,46.98
2024-04-30T21:33:31.065Z,47.89
2024-04-30T21:37:33.142Z,48.09
2024-04-30T21:41:34.783Z,48.34
2024-04-30T21:45:36.283Z,48.05
2024-04-30T21:49:37.824Z,48.54
2024-04-30T21:53:39.352Z,48.39
2024-04-30T21:57:40.883Z,48.39
2024-04-30T22:01:48.521Z,49.14
2024-04-30T22:05:49.998Z,48.53
2024-04-30T22:09:51.546Z,49.66
2024-04-30T22:13:53.146Z,50.03
2024-04-30T22:17:54.902Z,49.71
2024-04-30T22:21:56.651Z,50.75
2024-04-30T22:25:58.175Z,49.85
2024-04-30T22:30:08.676Z,50.06
2024-04-30T22:34:19.039Z,50.06
2024-04-30T22:38:20.904Z,50.09
2024-04-30T22:42:22.404Z,50.71
2024-04-30T22:46:23.876Z,50.77
2024-04-30T22:50:25.405Z,50.34
2024-04-30T22:54:26.903Z,50.84
2024-04-30T22:58:29.388Z,50.69
2024-04-30T23:02:30.848Z,51.13
2024-04-30T23:06:32.337Z,51.45
2024-04-30T23:10:34.032Z,50.86
2024-04-30T23:14:35.528Z,50.93
2024-04-30T23:18:37.102Z,51.33
2024-04-30T23:22:38.644Z,51.41
2024-04-30T23:26:40.201Z,52.54
2024-04-30T23:30:41.811Z,52.24
2024-04-30T23:34:43.343Z,52.24
2024-04-30T23:38:44.785Z,54.85
2024-04-30T23:42:46.288Z,54.17
2024-04-30T23:46:47.878Z,55.25
2024-04-30T23:50:49.376Z,54.27
2024-04-30T23:54:50.906Z,55.21
2024-04-30T23:58:52.390Z,54.61
